sensor_id;sensor_type;location;lat;lon;timestamp;pressure;altitude;pressure_sealevel;temperature;humidity
64827;BME280;51265;53.972;12.286;2024-01-25T00:00:25;100293.63;;;6.27;100.00
64827;BME280;51265;53.972;12.286;2024-01-25T00:02:51;100268.16;;;6.32;100.00
64827;BME280;51265;53.972;12.286;2024-01-25T00:05:17;100275.03;;;6.24;100.00
64827;BME280;51265;53.972;12.286;2024-01-25T00:07:48;100340.66;;;6.24;100.00
64827;BME280;51265;53.972;12.286;2024-01-25T00:10:17;100285.41;;;6.22;100.00
64827;BME280;51265;53.972;12.286;2024-01-25T00:12:44;100282.66;;;6.22;100.00
64827;BME280;51265;53.972;12.286;2024-01-25T00:15:10;100302.38;;;6.24;100.00
64827;BME280;51265;53.972;12.286;2024-01-25T00:17:37;100290.03;;;6.27;100.00
64827;BME280;51265;53.972;12.286;2024-01-25T00:20:04;100277.19;;;6.32;100.00
64827;BME280;51265;53.972;12.286;2024-01-25T00:22:31;100281.31;;;6.24;100.00
64827;BME280;51265;53.972;12.286;2024-01-25T00:24:58;100299.63;;;6.24;100.00
64827;BME280;51265;53.972;12.286;2024-01-25T00:27:24;100297.16;;;6.28;100.00
64827;BME280;51265;53.972;12.286;2024-01-25T00:29:50;100294.13;;;6.29;100.00
64827;BME280;51265;53.972;12.286;2024-01-25T00:32:16;100289.75;;;6.33;100.00
64827;BME280;51265;53.972;12.286;2024-01-25T00:34:43;100281.31;;;6.24;100.00
64827;BME280;51265;53.972;12.286;2024-01-25T00:37:09;100282.13;;;6.25;100.00
64827;BME280;51265;53.972;12.286;2024-01-25T00:39:36;100299.88;;;6.22;100.00
64827;BME280;51265;53.972;12.286;2024-01-25T00:42:06;100294.41;;;6.22;100.00
64827;BME280;51265;53.972;12.286;2024-01-25T00:44:33;100302.63;;;6.28;100.00
64827;BME280;51265;53.972;12.286;2024-01-25T00:46:59;100315.22;;;6.18;100.00
64827;BME280;51265;53.972;12.286;2024-01-25T00:49:26;100330.25;;;6.21;100.00
64827;BME280;51265;53.972;12.286;2024-01-25T00:51:58;100390.41;;;6.21;100.00
64827;BME280;51265;53.972;12.286;2024-01-25T00:54:25;100305.38;;;6.28;100.00
64827;BME280;51265;53.972;12.286;2024-01-25T00:56:51;100311.09;;;6.26;100.00
64827;BME280;51265;53.972;12.286;2024-01-25T00:59:19;100306.75;;;6.20;100.00
64827;BME280;51265;53.972;12.286;2024-01-25T01:01:47;100316.03;;;6.29;100.00
64827;BME280;51265;53.972;12.286;2024-01-25T01:04:15;100302.34;;;6.29;100.00
64827;BME280;51265;53.972;12.286;2024-01-25T01:06:41;100302.91;;;6.21;100.00
64827;BME280;51265;53.972;12.286;2024-01-25T01:09:08;100297.16;;;6.22;100.00
64827;BME280;51265;53.972;12.286;2024-01-25T01:11:36;100302.38;;;6.24;100.00
64827;BME280;51265;53.972;12.286;2024-01-25T01:14:02;100332.19;;;6.20;100.00
64827;BME280;51265;53.972;12.286;2024-01-25T01:16:28;100346.41;;;6.17;100.00
64827;BME280;51265;53.972;12.286;2024-01-25T01:18:59;100335.72;;;6.21;100.00
64827;BME280;51265;53.972;12.286;2024-01-25T01:21:34;100328.09;;;6.23;100.00
64827;BME280;51265;53.972;12.286;2024-01-25T01:24:02;100335.72;;;6.21;100.00
64827;BME280;51265;53.972;12.286;2024-01-25T01:26:28;100351.88;;;6.17;100.00
64827;BME280;51265;53.972;12.286;2024-01-25T01:28:54;100353.78;;;6.22;100.00
64827;BME280;51265;53.972;12.286;2024-01-25T01:31:20;100369.91;;;6.18;100.00
64827;BME280;51265;53.972;12.286;2024-01-25T01:33:46;100353.22;;;6.25;99.41
64827;BME280;51265;53.972;12.286;2024-01-25T01:36:13;100374.00;;;6.31;98.76
64827;BME280;51265;53.972;12.286;2024-01-25T01:38:40;100362.00;;;6.27;98.53
64827;BME280;51265;53.972;12.286;2024-01-25T01:41:06;100357.03;;;6.29;98.31
64827;BME280;51265;53.972;12.286;2024-01-25T01:43:32;100363.06;;;6.31;97.57
64827;BME280;51265;53.972;12.286;2024-01-25T01:46:06;100376.75;;;6.31;97.50
64827;BME280;51265;53.972;12.286;2024-01-25T01:48:36;100375.91;;;6.31;97.19
64827;BME280;51265;53.972;12.286;2024-01-25T01:51:02;100342.25;;;6.30;97.23
64827;BME280;51265;53.972;12.286;2024-01-25T01:53:28;100360.59;;;6.30;96.73
64827;BME280;51265;53.972;12.286;2024-01-25T01:55:55;100345.81;;;6.31;97.10
64827;BME280;51265;53.972;12.286;2024-01-25T01:58:22;100373.44;;;6.29;96.45
64827;BME280;51265;53.972;12.286;2024-01-25T02:00:50;100348.84;;;6.29;96.57
64827;BME280;51265;53.972;12.286;2024-01-25T02:03:16;100354.84;;;6.26;97.14
64827;BME280;51265;53.972;12.286;2024-01-25T02:05:42;100349.94;;;6.33;96.79
64827;BME280;51265;53.972;12.286;2024-01-25T02:08:09;100359.78;;;6.24;96.46
64827;BME280;51265;53.972;12.286;2024-01-25T02:10:35;100330.25;;;6.31;95.70
64827;BME280;51265;53.972;12.286;2024-01-25T02:13:01;100340.34;;;6.31;96.16
64827;BME280;51265;53.972;12.286;2024-01-25T02:15:27;100340.34;;;6.31;95.77
64827;BME280;51265;53.972;12.286;2024-01-25T02:17:53;100361.41;;;6.30;95.54
64827;BME280;51265;53.972;12.286;2024-01-25T02:20:20;100354.84;;;6.26;96.28
64827;BME280;51265;53.972;12.286;2024-01-25T02:22:46;100358.69;;;6.25;96.24
64827;BME280;51265;53.972;12.286;2024-01-25T02:25:13;100365.25;;;6.24;96.25
64827;BME280;51265;53.972;12.286;2024-01-25T02:27:39;100363.06;;;6.31;95.81
64827;BME280;51265;53.972;12.286;2024-01-25T02:30:06;100354.31;;;6.29;96.43
64827;BME280;51265;53.972;12.286;2024-01-25T02:32:33;100369.63;;;6.25;96.33
64827;BME280;51265;53.972;12.286;2024-01-25T02:34:59;100388.25;;;6.23;96.47
64827;BME280;51265;53.972;12.286;2024-01-25T02:37:26;100382.75;;;6.28;96.52
64827;BME280;51265;53.972;12.286;2024-01-25T02:39:52;100371.81;;;6.18;96.96
64827;BME280;51265;53.972;12.286;2024-01-25T02:42:19;100383.88;;;6.17;96.64
64827;BME280;51265;53.972;12.286;2024-01-25T02:44:45;100400.81;;;6.24;96.71
64827;BME280;51265;53.972;12.286;2024-01-25T02:47:11;100372.94;;;6.17;96.94
64827;BME280;51265;53.972;12.286;2024-01-25T02:49:38;100380.59;;;6.15;96.72
64827;BME280;51265;53.972;12.286;2024-01-25T02:52:04;100383.34;;;6.15;97.01
64827;BME280;51265;53.972;12.286;2024-01-25T02:54:30;100386.06;;;6.15;96.41
64827;BME280;51265;53.972;12.286;2024-01-25T02:56:56;100392.59;;;6.14;96.48
64827;BME280;51265;53.972;12.286;2024-01-25T02:59:22;100396.44;;;6.18;96.34
64827;BME280;51265;53.972;12.286;2024-01-25T03:01:48;100385.50;;;6.18;96.56
64827;BME280;51265;53.972;12.286;2024-01-25T03:04:14;100372.94;;;6.17;95.57
64827;BME280;51265;53.972;12.286;2024-01-25T03:06:41;100397.00;;;6.15;95.33
64827;BME280;51265;53.972;12.286;2024-01-25T03:09:07;100391.25;;;6.11;95.93
64827;BME280;51265;53.972;12.286;2024-01-25T03:11:33;100404.94;;;6.11;96.01
64827;BME280;51265;53.972;12.286;2024-01-25T03:14:00;100411.22;;;6.07;96.09
64827;BME280;51265;53.972;12.286;2024-01-25T03:16:26;100422.16;;;6.07;96.88
64827;BME280;51265;53.972;12.286;2024-01-25T03:18:52;100422.13;;;6.02;96.59
64827;BME280;51265;53.972;12.286;2024-01-25T03:21:18;100433.34;;;5.90;97.67
64827;BME280;51265;53.972;12.286;2024-01-25T03:23:44;100453.31;;;5.95;98.03
64827;BME280;51265;53.972;12.286;2024-01-25T03:26:10;100466.41;;;5.93;98.90
64827;BME280;51265;53.972;12.286;2024-01-25T03:28:37;100473.56;;;5.99;98.23
64827;BME280;51265;53.972;12.286;2024-01-25T03:31:05;100484.50;;;5.99;99.09
64827;BME280;51265;53.972;12.286;2024-01-25T03:33:31;100493.50;;;6.00;99.39
64827;BME280;51265;53.972;12.286;2024-01-25T03:36:02;100495.41;;;5.94;100.00
64827;BME280;51265;53.972;12.286;2024-01-25T03:38:28;100520.84;;;5.95;100.00
64827;BME280;51265;53.972;12.286;2024-01-25T03:40:55;100520.28;;;5.93;100.00
64827;BME280;51265;53.972;12.286;2024-01-25T03:43:22;100525.78;;;5.98;100.00
64827;BME280;51265;53.972;12.286;2024-01-25T03:45:49;100536.69;;;5.93;100.00
64827;BME280;51265;53.972;12.286;2024-01-25T03:48:15;100542.44;;;5.96;100.00
64827;BME280;51265;53.972;12.286;2024-01-25T03:50:42;100556.06;;;5.91;100.00
64827;BME280;51265;53.972;12.286;2024-01-25T03:53:09;100580.66;;;5.91;100.00
64827;BME280;51265;53.972;12.286;2024-01-25T03:55:35;100566.50;;;5.99;100.00
64827;BME280;51265;53.972;12.286;2024-01-25T03:58:01;100563.19;;;5.92;100.00
64827;BME280;51265;53.972;12.286;2024-01-25T04:00:27;100565.41;;;6.01;100.00
64827;BME280;51265;53.972;12.286;2024-01-25T04:02:53;100575.22;;;5.96;100.00
64827;BME280;51265;53.972;12.286;2024-01-25T04:05:20;100569.78;;;6.02;99.64
64827;BME280;51265;53.972;12.286;2024-01-25T04:07:46;100550.09;;;5.94;99.11
64827;BME280;51265;53.972;12.286;2024-01-25T04:10:12;100575.75;;;5.93;99.95
64827;BME280;51265;53.972;12.286;2024-01-25T04:12:38;100562.13;;;5.98;99.74
64827;BME280;51265;53.972;12.286;2024-01-25T04:15:06;100561.03;;;5.94;99.99
64827;BME280;51265;53.972;12.286;2024-01-25T04:17:32;100581.81;;;6.01;99.67
64827;BME280;51265;53.972;12.286;2024-01-25T04:19:58;100580.09;;;5.89;99.13
64827;BME280;51265;53.972;12.286;2024-01-25T04:22:24;100567.03;;;6.02;99.26
64827;BME280;51265;53.972;12.286;2024-01-25T04:24:50;100576.88;;;5.97;99.39
64827;BME280;51265;53.972;12.286;2024-01-25T04:27:16;100563.47;;;5.96;99.22
64827;BME280;51265;53.972;12.286;2024-01-25T04:29:43;100581.81;;;5.95;98.57
64827;BME280;51265;53.972;12.286;2024-01-25T04:32:09;100573.63;;;6.06;98.24
64827;BME280;51265;53.972;12.286;2024-01-25T04:34:36;100575.53;;;6.10;97.65
64827;BME280;51265;53.972;12.286;2024-01-25T04:37:02;100578.81;;;6.02;98.06
64827;BME280;51265;53.972;12.286;2024-01-25T04:39:28;100559.41;;;6.04;98.04
64827;BME280;51265;53.972;12.286;2024-01-25T04:41:54;100570.91;;;6.11;97.45
64827;BME280;51265;53.972;12.286;2024-01-25T04:44:20;100609.44;;;6.04;98.09
64827;BME280;51265;53.972;12.286;2024-01-25T04:46:47;100603.44;;;6.07;97.47
64827;BME280;51265;53.972;12.286;2024-01-25T04:49:13;100573.63;;;6.06;97.63
64827;BME280;51265;53.972;12.286;2024-01-25T04:51:39;100602.59;;;6.02;98.41
64827;BME280;51265;53.972;12.286;2024-01-25T04:54:05;100601.50;;;6.03;98.46
64827;BME280;51265;53.972;12.286;2024-01-25T04:56:33;100592.22;;;6.04;98.54
64827;BME280;51265;53.972;12.286;2024-01-25T04:58:59;100604.78;;;6.05;98.45
64827;BME280;51265;53.972;12.286;2024-01-25T05:01:25;100612.97;;;5.99;98.63
64827;BME280;51265;53.972;12.286;2024-01-25T05:03:51;100646.91;;;6.04;98.49
64827;BME280;51265;53.972;12.286;2024-01-25T05:06:17;100608.59;;;5.98;99.20
64827;BME280;51265;53.972;12.286;2024-01-25T05:08:44;100639.78;;;6.03;98.99
64827;BME280;51265;53.972;12.286;2024-01-25T05:11:10;100657.00;;;5.98;98.80
64827;BME280;51265;53.972;12.286;2024-01-25T05:13:36;100640.22;;;5.89;99.88
64827;BME280;51265;53.972;12.286;2024-01-25T05:16:02;100662.72;;;5.96;99.39
64827;BME280;51265;53.972;12.286;2024-01-25T05:18:29;100642.22;;;5.94;99.54
64827;BME280;51265;53.972;12.286;2024-01-25T05:20:56;100650.91;;;5.86;99.85
64827;BME280;51265;53.972;12.286;2024-01-25T05:23:23;100677.13;;;5.82;100.00
64827;BME280;51265;53.972;12.286;2024-01-25T05:25:50;100681.22;;;5.84;100.00
64827;BME280;51265;53.972;12.286;2024-01-25T05:28:16;100687.28;;;5.91;100.00
64827;BME280;51265;53.972;12.286;2024-01-25T05:30:43;100695.97;;;5.83;100.00
64827;BME280;51265;53.972;12.286;2024-01-25T05:33:09;100723.31;;;5.83;100.00
64827;BME280;51265;53.972;12.286;2024-01-25T05:35:35;100703.34;;;5.78;100.00
64827;BME280;51265;53.972;12.286;2024-01-25T05:38:01;100705.78;;;5.79;100.00
64827;BME280;51265;53.972;12.286;2024-01-25T05:40:28;100707.44;;;5.80;100.00
64827;BME280;51265;53.972;12.286;2024-01-25T05:42:54;100729.56;;;5.73;100.00
64827;BME280;51265;53.972;12.286;2024-01-25T05:45:21;100739.66;;;5.73;100.00
64827;BME280;51265;53.972;12.286;2024-01-25T05:47:47;100759.34;;;5.75;100.00
64827;BME280;51265;53.972;12.286;2024-01-25T05:50:13;100734.75;;;5.80;100.00
64827;BME280;51265;53.972;12.286;2024-01-25T05:52:40;100738.59;;;5.79;100.00
64827;BME280;51265;53.972;12.286;2024-01-25T05:55:06;100724.31;;;5.67;100.00
64827;BME280;51265;53.972;12.286;2024-01-25T05:57:35;100756.31;;;5.71;100.00
64827;BME280;51265;53.972;12.286;2024-01-25T06:00:03;100731.16;;;5.69;100.00
64827;BME280;51265;53.972;12.286;2024-01-25T06:02:34;100770.47;;;5.63;100.00
64827;BME280;51265;53.972;12.286;2024-01-25T06:05:00;100780.31;;;5.64;100.00
64827;BME280;51265;53.972;12.286;2024-01-25T06:07:27;100757.59;;;5.64;100.00
64827;BME280;51265;53.972;12.286;2024-01-25T06:09:54;100776.16;;;5.57;100.00
64827;BME280;51265;53.972;12.286;2024-01-25T06:12:20;100771.19;;;5.48;100.00
64827;BME280;51265;53.972;12.286;2024-01-25T06:14:46;100800.66;;;5.46;100.00
64827;BME280;51265;53.972;12.286;2024-01-25T06:17:12;100777.94;;;5.41;100.00
64827;BME280;51265;53.972;12.286;2024-01-25T06:19:38;100799.00;;;5.45;100.00
64827;BME280;51265;53.972;12.286;2024-01-25T06:22:05;100818.66;;;5.42;100.00
64827;BME280;51265;53.972;12.286;2024-01-25T06:24:31;100822.47;;;5.41;100.00
64827;BME280;51265;53.972;12.286;2024-01-25T06:26:57;100840.25;;;5.44;100.00
64827;BME280;51265;53.972;12.286;2024-01-25T06:29:23;100879.38;;;5.49;100.00
64827;BME280;51265;53.972;12.286;2024-01-25T06:31:50;100851.56;;;5.58;100.00
64827;BME280;51265;53.972;12.286;2024-01-25T06:34:16;100853.97;;;5.49;100.00
64827;BME280;51265;53.972;12.286;2024-01-25T06:36:42;100858.59;;;5.48;100.00
64827;BME280;51265;53.972;12.286;2024-01-25T06:39:08;100882.59;;;5.46;100.00
64827;BME280;51265;53.972;12.286;2024-01-25T06:41:35;100872.72;;;5.40;100.00
64827;BME280;51265;53.972;12.286;2024-01-25T06:44:01;100897.84;;;5.42;100.00
64827;BME280;51265;53.972;12.286;2024-01-25T06:46:27;100900.13;;;5.50;100.00
64827;BME280;51265;53.972;12.286;2024-01-25T06:48:53;100879.91;;;5.52;100.00
64827;BME280;51265;53.972;12.286;2024-01-25T06:51:20;100876.13;;;5.53;100.00
64827;BME280;51265;53.972;12.286;2024-01-25T06:53:46;100909.41;;;5.49;100.00
64827;BME280;51265;53.972;12.286;2024-01-25T06:56:12;100887.56;;;5.49;100.00
64827;BME280;51265;53.972;12.286;2024-01-25T06:58:38;100905.59;;;5.50;100.00
64827;BME280;51265;53.972;12.286;2024-01-25T07:01:05;100896.56;;;5.50;100.00
64827;BME280;51265;53.972;12.286;2024-01-25T07:03:31;100917.88;;;5.48;100.00
64827;BME280;51265;53.972;12.286;2024-01-25T07:05:57;100923.34;;;5.48;100.00
64827;BME280;51265;53.972;12.286;2024-01-25T07:08:23;100973.34;;;5.48;100.00
64827;BME280;51265;53.972;12.286;2024-01-25T07:10:50;100908.09;;;5.52;100.00
64827;BME280;51265;53.972;12.286;2024-01-25T07:13:16;100921.94;;;5.45;100.00
64827;BME280;51265;53.972;12.286;2024-01-25T07:15:42;100919.72;;;5.42;100.00
64827;BME280;51265;53.972;12.286;2024-01-25T07:18:08;100957.97;;;5.42;100.00
64827;BME280;51265;53.972;12.286;2024-01-25T07:20:35;100954.66;;;5.40;100.00
64827;BME280;51265;53.972;12.286;2024-01-25T07:23:01;100947.56;;;5.39;100.00
64827;BME280;51265;53.972;12.286;2024-01-25T07:25:27;100964.50;;;5.41;100.00
64827;BME280;51265;53.972;12.286;2024-01-25T07:27:53;100960.69;;;5.42;100.00
64827;BME280;51265;53.972;12.286;2024-01-25T07:30:19;100985.28;;;5.42;100.00
64827;BME280;51265;53.972;12.286;2024-01-25T07:32:46;101000.03;;;5.41;100.00
64827;BME280;51265;53.972;12.286;2024-01-25T07:35:12;101007.91;;;5.38;100.00
64827;BME280;51265;53.972;12.286;2024-01-25T07:37:39;101010.31;;;5.34;100.00
64827;BME280;51265;53.972;12.286;2024-01-25T07:40:08;100986.81;;;5.33;100.00
64827;BME280;51265;53.972;12.286;2024-01-25T07:42:34;101009.75;;;5.32;100.00
64827;BME280;51265;53.972;12.286;2024-01-25T07:45:00;100998.78;;;5.27;100.00
64827;BME280;51265;53.972;12.286;2024-01-25T07:47:27;101009.69;;;5.27;100.00
64827;BME280;51265;53.972;12.286;2024-01-25T07:49:53;101031.44;;;5.22;100.00
64827;BME280;51265;53.972;12.286;2024-01-25T07:52:19;101036.41;;;5.25;100.00
64827;BME280;51265;53.972;12.286;2024-01-25T07:54:45;101000.91;;;5.25;100.00
64827;BME280;51265;53.972;12.286;2024-01-25T07:57:11;101042.97;;;5.24;100.00
64827;BME280;51265;53.972;12.286;2024-01-25T07:59:38;101031.22;;;5.23;100.00
64827;BME280;51265;53.972;12.286;2024-01-25T08:02:04;101041.94;;;5.30;100.00
64827;BME280;51265;53.972;12.286;2024-01-25T08:04:30;101055.34;;;5.32;100.00
64827;BME280;51265;53.972;12.286;2024-01-25T08:06:57;101088.97;;;5.32;100.00
64827;BME280;51265;53.972;12.286;2024-01-25T08:09:24;101057.00;;;5.33;100.00
64827;BME280;51265;53.972;12.286;2024-01-25T08:11:50;101041.44;;;5.33;100.00
64827;BME280;51265;53.972;12.286;2024-01-25T08:14:17;101052.09;;;5.35;100.00
64827;BME280;51265;53.972;12.286;2024-01-25T08:16:44;101054.09;;;5.39;100.00
64827;BME280;51265;53.972;12.286;2024-01-25T08:19:10;101064.94;;;5.34;100.00
64827;BME280;51265;53.972;12.286;2024-01-25T08:21:36;101037.06;;;5.32;100.00
64827;BME280;51265;53.972;12.286;2024-01-25T08:24:03;101045.25;;;5.32;100.00
64827;BME280;51265;53.972;12.286;2024-01-25T08:26:30;101065.47;;;5.31;100.00
64827;BME280;51265;53.972;12.286;2024-01-25T08:28:56;101065.25;;;5.38;100.00
64827;BME280;51265;53.972;12.286;2024-01-25T08:31:22;101092.25;;;5.34;100.00
64827;BME280;51265;53.972;12.286;2024-01-25T08:33:49;101065.75;;;5.35;100.00
64827;BME280;51265;53.972;12.286;2024-01-25T08:36:18;101086.78;;;5.34;100.00
64827;BME280;51265;53.972;12.286;2024-01-25T08:38:47;101111.31;;;5.29;100.00
64827;BME280;51265;53.972;12.286;2024-01-25T08:41:13;101070.34;;;5.29;100.00
64827;BME280;51265;53.972;12.286;2024-01-25T08:43:41;101103.81;;;5.19;100.00
64827;BME280;51265;53.972;12.286;2024-01-25T08:46:08;101090.97;;;5.20;100.00
64827;BME280;51265;53.972;12.286;2024-01-25T08:48:34;101106.88;;;5.23;100.00
64827;BME280;51265;53.972;12.286;2024-01-25T08:51:00;101122.22;;;5.29;100.00
64827;BME280;51265;53.972;12.286;2024-01-25T08:53:27;101122.28;;;5.34;100.00
64827;BME280;51265;53.972;12.286;2024-01-25T08:55:54;101116.06;;;5.39;100.00
64827;BME280;51265;53.972;12.286;2024-01-25T08:58:21;101120.22;;;5.41;100.00
64827;BME280;51265;53.972;12.286;2024-01-25T09:00:47;101120.22;;;5.41;100.00
64827;BME280;51265;53.972;12.286;2024-01-25T09:03:14;101134.53;;;5.48;100.00
64827;BME280;51265;53.972;12.286;2024-01-25T09:05:41;101111.00;;;5.47;100.00
64827;BME280;51265;53.972;12.286;2024-01-25T09:08:14;101127.97;;;5.49;100.00
64827;BME280;51265;53.972;12.286;2024-01-25T09:10:41;101138.91;;;5.49;100.00
64827;BME280;51265;53.972;12.286;2024-01-25T09:13:08;101144.94;;;5.52;100.00
64827;BME280;51265;53.972;12.286;2024-01-25T09:15:34;101150.97;;;5.54;100.00
64827;BME280;51265;53.972;12.286;2024-01-25T09:18:00;101175.56;;;5.54;100.00
64827;BME280;51265;53.972;12.286;2024-01-25T09:20:27;101155.03;;;5.51;100.00
64827;BME280;51265;53.972;12.286;2024-01-25T09:22:53;101151.53;;;5.56;100.00
64827;BME280;51265;53.972;12.286;2024-01-25T09:25:22;101143.53;;;5.49;100.00
64827;BME280;51265;53.972;12.286;2024-01-25T09:27:49;101163.56;;;5.55;100.00
64827;BME280;51265;53.972;12.286;2024-01-25T09:30:15;101147.16;;;5.55;100.00
64827;BME280;51265;53.972;12.286;2024-01-25T09:32:42;101170.16;;;5.59;100.00
64827;BME280;51265;53.972;12.286;2024-01-25T09:35:08;101194.75;;;5.59;100.00
64827;BME280;51265;53.972;12.286;2024-01-25T09:37:34;101211.34;;;5.52;100.00
64827;BME280;51265;53.972;12.286;2024-01-25T09:40:00;101205.63;;;5.54;100.00
64827;BME280;51265;53.972;12.286;2024-01-25T09:42:26;101184.34;;;5.56;100.00
64827;BME280;51265;53.972;12.286;2024-01-25T09:44:54;101173.34;;;5.50;100.00
64827;BME280;51265;53.972;12.286;2024-01-25T09:47:21;101237.75;;;5.46;100.00
64827;BME280;51265;53.972;12.286;2024-01-25T09:49:48;101175.50;;;5.48;100.00
64827;BME280;51265;53.972;12.286;2024-01-25T09:52:15;101185.91;;;5.52;100.00
64827;BME280;51265;53.972;12.286;2024-01-25T09:54:42;101199.66;;;5.57;100.00
64827;BME280;51265;53.972;12.286;2024-01-25T09:57:17;101199.66;;;5.57;100.00
64827;BME280;51265;53.972;12.286;2024-01-25T09:59:48;101183.34;;;5.62;100.00
64827;BME280;51265;53.972;12.286;2024-01-25T10:02:16;101195.34;;;5.61;100.00
64827;BME280;51265;53.972;12.286;2024-01-25T10:04:48;101216.69;;;5.64;100.00
64827;BME280;51265;53.972;12.286;2024-01-25T10:07:15;101239.88;;;5.78;100.00
64827;BME280;51265;53.972;12.286;2024-01-25T10:09:41;101240.22;;;5.65;100.00
64827;BME280;51265;53.972;12.286;2024-01-25T10:12:08;101236.91;;;5.63;100.00
64827;BME280;51265;53.972;12.286;2024-01-25T10:14:34;101221.00;;;5.60;100.00
64827;BME280;51265;53.972;12.286;2024-01-25T10:17:00;101241.69;;;5.72;100.00
64827;BME280;51265;53.972;12.286;2024-01-25T10:19:27;101254.69;;;5.82;100.00
64827;BME280;51265;53.972;12.286;2024-01-25T10:21:53;101246.72;;;5.81;100.00
64827;BME280;51265;53.972;12.286;2024-01-25T10:24:20;101265.56;;;5.94;100.00
64827;BME280;51265;53.972;12.286;2024-01-25T10:26:48;101255.44;;;5.94;100.00
64827;BME280;51265;53.972;12.286;2024-01-25T10:29:15;101257.59;;;5.92;100.00
64827;BME280;51265;53.972;12.286;2024-01-25T10:31:41;101266.19;;;6.01;100.00
64827;BME280;51265;53.972;12.286;2024-01-25T10:34:13;101265.69;;;5.87;100.00
64827;BME280;51265;53.972;12.286;2024-01-25T10:36:40;101300.66;;;5.85;100.00
64827;BME280;51265;53.972;12.286;2024-01-25T10:39:07;101293.03;;;5.87;100.00
64827;BME280;51265;53.972;12.286;2024-01-25T10:41:34;101265.69;;;5.87;100.00
64827;BME280;51265;53.972;12.286;2024-01-25T10:44:01;101277.94;;;5.85;100.00
64827;BME280;51265;53.972;12.286;2024-01-25T10:46:29;101282.59;;;5.84;100.00
64827;BME280;51265;53.972;12.286;2024-01-25T10:48:58;101283.69;;;5.83;100.00
64827;BME280;51265;53.972;12.286;2024-01-25T10:51:26;101284.75;;;5.82;100.00
64827;BME280;51265;53.972;12.286;2024-01-25T10:53:53;101280.28;;;5.76;100.00
64827;BME280;51265;53.972;12.286;2024-01-25T10:56:21;101276.97;;;5.74;100.00
64827;BME280;51265;53.972;12.286;2024-01-25T10:58:47;101299.19;;;5.94;100.00
64827;BME280;51265;53.972;12.286;2024-01-25T11:01:13;101278.47;;;5.82;100.00
64827;BME280;51265;53.972;12.286;2024-01-25T11:03:40;101309.78;;;5.74;100.00
64827;BME280;51265;53.972;12.286;2024-01-25T11:06:10;101277.88;;;5.80;100.00
64827;BME280;51265;53.972;12.286;2024-01-25T11:08:37;101285.91;;;5.86;100.00
64827;BME280;51265;53.972;12.286;2024-01-25T11:11:10;101276.78;;;5.81;100.00
64827;BME280;51265;53.972;12.286;2024-01-25T11:13:43;101268.28;;;5.77;100.00
64827;BME280;51265;53.972;12.286;2024-01-25T11:16:17;101279.47;;;5.92;100.00
64827;BME280;51265;53.972;12.286;2024-01-25T11:18:50;101270.66;;;5.90;100.00
64827;BME280;51265;53.972;12.286;2024-01-25T11:21:27;101258.91;;;5.90;100.00
64827;BME280;51265;53.972;12.286;2024-01-25T11:24:01;101274.44;;;5.89;100.00
64827;BME280;51265;53.972;12.286;2024-01-25T11:26:29;101267.34;;;5.88;100.00
64827;BME280;51265;53.972;12.286;2024-01-25T11:28:56;101272.81;;;5.88;100.00
64827;BME280;51265;53.972;12.286;2024-01-25T11:31:22;101292.53;;;5.90;100.00
64827;BME280;51265;53.972;12.286;2024-01-25T11:33:50;101273.50;;;5.95;100.00
64827;BME280;51265;53.972;12.286;2024-01-25T11:36:20;101269.34;;;5.93;100.00
64827;BME280;51265;53.972;12.286;2024-01-25T11:38:46;101294.19;;;5.91;100.00
64827;BME280;51265;53.972;12.286;2024-01-25T11:41:12;101288.59;;;5.81;100.00
64827;BME280;51265;53.972;12.286;2024-01-25T11:43:40;101279.28;;;5.82;100.00
64827;BME280;51265;53.972;12.286;2024-01-25T11:46:06;101287.91;;;5.74;100.00
64827;BME280;51265;53.972;12.286;2024-01-25T11:48:33;101294.88;;;5.82;100.00
64827;BME280;51265;53.972;12.286;2024-01-25T11:51:02;101290.28;;;5.87;100.00
64827;BME280;51265;53.972;12.286;2024-01-25T11:53:28;101290.22;;;5.82;100.00
64827;BME280;51265;53.972;12.286;2024-01-25T11:55:55;101296.78;;;5.81;100.00
64827;BME280;51265;53.972;12.286;2024-01-25T11:58:23;101316.22;;;5.85;100.00
64827;BME280;51265;53.972;12.286;2024-01-25T12:00:49;101357.31;;;5.90;100.00
64827;BME280;51265;53.972;12.286;2024-01-25T12:03:16;101316.75;;;5.82;100.00
64827;BME280;51265;53.972;12.286;2024-01-25T12:05:43;101299.50;;;5.81;100.00
64827;BME280;51265;53.972;12.286;2024-01-25T12:08:13;101289.41;;;5.82;100.00
64827;BME280;51265;53.972;12.286;2024-01-25T12:10:39;101309.94;;;5.84;100.00
64827;BME280;51265;53.972;12.286;2024-01-25T12:13:09;101301.22;;;5.87;100.00
64827;BME280;51265;53.972;12.286;2024-01-25T12:15:35;101304.97;;;5.81;100.00
64827;BME280;51265;53.972;12.286;2024-01-25T12:18:01;101287.56;;;5.87;100.00
64827;BME280;51265;53.972;12.286;2024-01-25T12:20:28;101315.00;;;5.92;100.00
64827;BME280;51265;53.972;12.286;2024-01-25T12:22:54;101319.81;;;5.85;100.00
64827;BME280;51265;53.972;12.286;2024-01-25T12:25:24;101306.78;;;5.92;100.00
64827;BME280;51265;53.972;12.286;2024-01-25T12:27:50;101325.72;;;5.94;100.00
64827;BME280;51265;53.972;12.286;2024-01-25T12:30:17;101326.91;;;5.86;100.00
64827;BME280;51265;53.972;12.286;2024-01-25T12:32:43;101333.66;;;5.95;100.00
64827;BME280;51265;53.972;12.286;2024-01-25T12:35:09;101308.59;;;5.87;100.00
64827;BME280;51265;53.972;12.286;2024-01-25T12:37:35;101315.38;;;5.84;100.00
64827;BME280;51265;53.972;12.286;2024-01-25T12:40:02;101322.00;;;5.88;100.00